createdAt,value
2022-10-16T00:01:23.445Z,0.68
2022-10-16T00:03:51.093Z,0.93
2022-10-16T00:06:19.865Z,1.00
2022-10-16T00:08:48.089Z,0.90
2022-10-16T00:11:18.152Z,1.02
2022-10-16T00:13:47.130Z,0.90
2022-10-16T00:16:14.817Z,1.00
2022-10-16T00:18:42.568Z,1.10
2022-10-16T00:21:16.189Z,1.23
2022-10-16T00:23:43.288Z,1.38
2022-10-16T00:26:15.806Z,1.17
2022-10-16T00:28:43.235Z,1.00
2022-10-16T00:31:12.213Z,1.10
2022-10-16T00:33:40.823Z,1.40
2022-10-16T00:38:35.408Z,1.33
2022-10-16T00:41:02.358Z,1.25
2022-10-16T00:43:42.857Z,1.35
2022-10-16T00:46:38.255Z,1.08
2022-10-16T00:49:19.925Z,1.73
2022-10-16T00:51:50.377Z,1.70
2022-10-16T00:54:32.027Z,1.98
2022-10-16T00:57:02.477Z,1.58
2022-10-16T00:59:33.981Z,1.83
2022-10-16T01:02:01.808Z,1.10
2022-10-16T01:04:34.929Z,1.70
2022-10-16T01:07:26.943Z,1.50
2022-10-16T01:10:08.717Z,1.73
2022-10-16T01:12:50.711Z,1.77
2022-10-16T01:18:23.354Z,1.30
2022-10-16T01:21:06.376Z,1.27
2022-10-16T01:23:46.960Z,1.55
2022-10-16T01:26:38.634Z,1.52
2022-10-16T01:29:32.613Z,1.10
2022-10-16T01:32:05.106Z,1.48
2022-10-16T01:34:42.975Z,1.20
2022-10-16T01:37:15.685Z,1.10
2022-10-16T01:39:46.580Z,1.10
2022-10-16T01:42:21.289Z,1.10
2022-10-16T01:44:49.393Z,1.25
2022-10-16T01:47:18.477Z,0.90
2022-10-16T01:50:12.513Z,1.60
2022-10-16T01:52:43.201Z,1.10
2022-10-16T01:55:13.592Z,1.20
2022-10-16T01:57:46.097Z,1.42
2022-10-16T02:00:15.257Z,1.23
2022-10-16T02:02:45.973Z,1.05
2022-10-16T02:05:37.628Z,1.25
2022-10-16T02:08:05.818Z,1.15
2022-10-16T02:10:33.499Z,1.10
2022-10-16T02:13:28.877Z,1.17
2022-10-16T02:15:55.940Z,0.80
2022-10-16T02:18:23.145Z,0.73
2022-10-16T02:21:06.159Z,0.80
2022-10-16T02:24:08.280Z,0.93
2022-10-16T02:27:04.731Z,0.82
2022-10-16T02:29:34.978Z,1.05
2022-10-16T02:32:05.544Z,0.80
2022-10-16T02:34:34.302Z,0.95
2022-10-16T02:37:04.506Z,0.90
2022-10-16T02:39:32.135Z,0.77
2022-10-16T02:41:59.081Z,0.80
2022-10-16T02:44:26.770Z,0.70
2022-10-16T02:46:53.728Z,1.25
2022-10-16T02:49:20.988Z,0.70
2022-10-16T02:51:47.883Z,0.95
2022-10-16T02:54:14.942Z,0.70
2022-10-16T02:56:41.926Z,0.80
2022-10-16T02:59:09.526Z,0.98
2022-10-16T03:01:37.042Z,0.60
2022-10-16T03:04:04.387Z,0.90
2022-10-16T03:06:31.353Z,1.05
2022-10-16T03:08:58.504Z,0.63
2022-10-16T03:11:25.660Z,0.80
2022-10-16T03:13:52.609Z,1.00
2022-10-16T03:16:19.619Z,1.00
2022-10-16T03:18:50.731Z,0.90
2022-10-16T03:21:18.107Z,0.95
2022-10-16T03:23:45.040Z,0.85
2022-10-16T03:26:12.057Z,0.95
2022-10-16T03:28:39.066Z,0.88
2022-10-16T03:31:06.182Z,0.80
2022-10-16T03:33:33.093Z,1.15
2022-10-16T03:36:00.134Z,0.90
2022-10-16T03:38:27.119Z,1.00
2022-10-16T03:40:54.452Z,0.70
2022-10-16T03:43:21.443Z,0.80
2022-10-16T03:45:48.725Z,0.70
2022-10-16T03:48:16.025Z,1.10
2022-10-16T03:50:43.276Z,0.70
2022-10-16T03:53:10.462Z,0.60
2022-10-16T03:55:37.676Z,0.88
2022-10-16T03:58:04.631Z,0.73
2022-10-16T04:00:31.608Z,0.63
2022-10-16T04:02:58.578Z,0.88
2022-10-16T04:05:25.478Z,0.63
2022-10-16T04:07:52.556Z,1.10
2022-10-16T04:10:20.136Z,0.75
2022-10-16T04:12:47.069Z,0.70
2022-10-16T04:15:14.127Z,0.98
2022-10-16T04:17:41.001Z,0.93
2022-10-16T04:20:08.340Z,0.70
2022-10-16T04:22:35.288Z,0.77
2022-10-16T04:25:02.221Z,1.02
2022-10-16T04:27:29.944Z,0.80
2022-10-16T04:29:57.495Z,0.75
2022-10-16T04:32:24.407Z,0.60
2022-10-16T04:34:51.384Z,0.63
2022-10-16T04:37:18.363Z,0.93
2022-10-16T04:39:45.985Z,0.80
2022-10-16T04:42:12.949Z,0.63
2022-10-16T04:44:40.113Z,0.60
2022-10-16T04:47:06.994Z,0.60
2022-10-16T04:49:34.166Z,0.70
2022-10-16T04:52:01.140Z,0.73
2022-10-16T04:54:28.178Z,0.60
2022-10-16T04:56:55.315Z,0.70
2022-10-16T04:59:23.218Z,0.65
2022-10-16T05:01:50.642Z,0.60
2022-10-16T05:04:17.746Z,0.50
2022-10-16T05:06:44.832Z,0.60
2022-10-16T05:09:11.830Z,0.90
2022-10-16T05:11:41.633Z,0.60
2022-10-16T05:14:08.682Z,0.52
2022-10-16T05:16:35.618Z,0.65
2022-10-16T05:19:26.215Z,0.80
2022-10-16T05:21:49.577Z,0.60
2022-10-16T05:24:16.495Z,0.63
2022-10-16T05:26:43.490Z,0.50
2022-10-16T05:29:10.916Z,0.60
2022-10-16T05:31:38.623Z,0.80
2022-10-16T05:34:05.728Z,0.80
2022-10-16T05:36:32.783Z,0.57
2022-10-16T05:38:59.704Z,0.60
2022-10-16T05:41:27.408Z,0.60
2022-10-16T05:43:54.523Z,0.67
2022-10-16T05:46:21.627Z,0.50
2022-10-16T05:48:48.533Z,0.70
2022-10-16T05:51:17.235Z,0.80
2022-10-16T05:56:17.210Z,0.60
2022-10-16T05:58:45.555Z,0.60
2022-10-16T06:01:21.699Z,0.57
2022-10-16T06:03:48.825Z,0.43
2022-10-16T06:06:24.166Z,0.63
2022-10-16T06:08:51.153Z,0.50
2022-10-16T06:11:20.407Z,0.50
2022-10-16T06:13:51.501Z,0.50
2022-10-16T06:16:19.043Z,0.32
2022-10-16T06:18:46.805Z,0.60
2022-10-16T06:21:17.865Z,0.70
2022-10-16T06:26:21.363Z,0.60
2022-10-16T06:28:48.599Z,0.73
2022-10-16T06:31:16.084Z,0.70
2022-10-16T06:33:43.432Z,0.63
2022-10-16T06:36:17.804Z,0.50
2022-10-16T06:38:45.674Z,0.52
2022-10-16T06:41:14.854Z,0.50
2022-10-16T06:43:42.210Z,0.60
2022-10-16T06:46:11.873Z,0.40
2022-10-16T06:48:39.383Z,0.40
2022-10-16T06:51:10.765Z,0.90
2022-10-16T06:54:01.036Z,0.60
2022-10-16T06:56:31.192Z,0.50
2022-10-16T06:58:58.366Z,0.63
2022-10-16T07:01:25.729Z,0.50
2022-10-16T07:03:53.325Z,0.60
2022-10-16T07:06:25.259Z,0.75
2022-10-16T07:08:53.036Z,0.75
2022-10-16T07:11:23.314Z,0.65
2022-10-16T07:13:54.891Z,0.60
2022-10-16T07:16:26.302Z,0.50
2022-10-16T07:18:59.191Z,0.90
2022-10-16T07:21:28.478Z,0.60
2022-10-16T07:23:57.779Z,0.60
2022-10-16T07:26:26.251Z,0.57
2022-10-16T07:28:53.642Z,0.73
2022-10-16T07:31:21.630Z,0.70
2022-10-16T07:33:49.407Z,0.88
2022-10-16T07:36:18.815Z,0.83
2022-10-16T07:38:45.909Z,0.68
2022-10-16T07:41:16.132Z,0.70
2022-10-16T07:43:50.707Z,0.90
2022-10-16T07:46:19.394Z,0.70
2022-10-16T07:51:17.696Z,0.73
2022-10-16T07:53:44.949Z,0.60
2022-10-16T07:56:12.873Z,0.77
2022-10-16T07:58:40.609Z,0.75
2022-10-16T08:01:10.895Z,0.77
2022-10-16T08:03:38.320Z,0.50
2022-10-16T08:06:06.161Z,0.65
2022-10-16T08:08:33.271Z,0.77
2022-10-16T08:11:00.426Z,0.60
2022-10-16T08:13:27.719Z,0.77
2022-10-16T08:15:55.450Z,0.60
2022-10-16T08:18:22.545Z,1.05
2022-10-16T08:20:55.866Z,0.82
2022-10-16T08:23:22.888Z,0.70
2022-10-16T08:25:49.852Z,0.50
2022-10-16T08:28:17.751Z,0.82
2022-10-16T08:30:45.071Z,0.77
2022-10-16T08:33:12.235Z,0.50
2022-10-16T08:35:39.223Z,0.60
2022-10-16T08:38:07.405Z,0.70
2022-10-16T08:40:37.155Z,0.68
2022-10-16T08:43:22.146Z,0.60
2022-10-16T08:46:01.110Z,0.60
2022-10-16T08:48:44.621Z,0.60
2022-10-16T08:51:19.347Z,0.55
2022-10-16T08:53:53.217Z,0.38
2022-10-16T08:56:20.550Z,0.52
2022-10-16T08:58:48.951Z,0.70
2022-10-16T09:03:57.403Z,0.60
2022-10-16T09:06:43.681Z,0.40
2022-10-16T09:09:16.218Z,0.68
2022-10-16T09:12:11.585Z,0.50
2022-10-16T09:14:41.335Z,0.60
2022-10-16T09:17:35.481Z,0.80
2022-10-16T09:20:24.230Z,0.60
2022-10-16T09:22:59.957Z,0.70
2022-10-16T09:25:27.224Z,0.60
2022-10-16T09:27:55.124Z,0.57
2022-10-16T09:30:23.992Z,0.60
2022-10-16T09:32:53.999Z,0.65
2022-10-16T09:35:33.316Z,0.40
2022-10-16T09:38:00.693Z,0.50
2022-10-16T09:40:30.088Z,0.50
2022-10-16T09:43:24.641Z,0.70
2022-10-16T09:46:05.244Z,0.60
2022-10-16T09:48:45.552Z,0.52
2022-10-16T09:51:22.736Z,0.50
2022-10-16T09:53:55.347Z,0.45
2022-10-16T09:56:33.890Z,0.40
2022-10-16T09:59:24.985Z,0.47
2022-10-16T10:01:56.628Z,0.68
2022-10-16T10:04:26.744Z,0.57
2022-10-16T10:06:56.644Z,0.50
2022-10-16T10:09:48.346Z,0.50
2022-10-16T10:12:26.986Z,0.40
2022-10-16T10:15:06.461Z,0.80
2022-10-16T10:17:33.422Z,0.50
2022-10-16T10:20:12.738Z,0.35
2022-10-16T10:22:46.809Z,0.52
2022-10-16T10:25:13.861Z,0.60
2022-10-16T10:28:05.086Z,0.70
2022-10-16T10:30:47.140Z,0.57
2022-10-16T10:33:21.182Z,0.50
2022-10-16T10:36:06.893Z,0.47
2022-10-16T10:38:39.979Z,0.52
2022-10-16T10:41:15.848Z,0.60
2022-10-16T10:43:55.932Z,0.60
2022-10-16T10:46:36.440Z,0.50
2022-10-16T10:49:24.788Z,0.52
2022-10-16T10:52:29.767Z,0.50
2022-10-16T10:54:59.911Z,0.50
2022-10-16T10:57:30.921Z,0.60
2022-10-16T11:00:11.538Z,0.90
2022-10-16T11:03:06.930Z,0.63
2022-10-16T11:06:07.495Z,0.50
2022-10-16T11:09:01.338Z,0.55
2022-10-16T11:12:00.189Z,0.52
2022-10-16T11:14:43.978Z,0.68
2022-10-16T11:17:35.304Z,0.60
2022-10-16T11:20:41.085Z,0.40
2022-10-16T11:23:26.183Z,0.40
2022-10-16T11:25:57.204Z,0.60
2022-10-16T11:28:44.125Z,0.30
2022-10-16T11:31:41.305Z,0.82
2022-10-16T11:34:24.080Z,0.55
2022-10-16T11:37:14.311Z,0.90
2022-10-16T11:39:43.285Z,0.52
2022-10-16T11:42:20.955Z,0.40
2022-10-16T11:45:16.931Z,0.47
2022-10-16T11:47:58.644Z,0.40
2022-10-16T11:50:41.818Z,0.63
2022-10-16T11:53:46.329Z,0.38
2022-10-16T11:56:18.269Z,0.35
2022-10-16T11:59:03.949Z,0.45
2022-10-16T12:01:43.333Z,0.47
2022-10-16T12:04:25.282Z,0.30
2022-10-16T12:07:14.207Z,0.35
2022-10-16T12:09:42.472Z,0.30
2022-10-16T12:15:47.099Z,0.30
2022-10-16T12:18:27.015Z,0.32
2022-10-16T12:21:06.222Z,0.40
2022-10-16T12:23:48.559Z,0.73
2022-10-16T12:26:24.631Z,0.40
2022-10-16T12:28:52.886Z,0.30
2022-10-16T12:31:20.173Z,0.43
2022-10-16T12:34:03.453Z,0.30
2022-10-16T12:36:37.760Z,0.50
2022-10-16T12:39:04.910Z,0.40
2022-10-16T12:41:34.522Z,0.57
2022-10-16T12:44:02.499Z,0.40
2022-10-16T12:46:34.128Z,0.40
2022-10-16T12:49:30.223Z,0.40
2022-10-16T12:51:59.026Z,0.50
2022-10-16T12:54:42.333Z,0.30
2022-10-16T12:57:20.241Z,0.30
2022-10-16T13:00:12.253Z,0.60
2022-10-16T13:03:16.450Z,0.50
2022-10-16T13:06:01.001Z,0.50
2022-10-16T13:08:33.805Z,0.28
2022-10-16T13:11:06.815Z,0.30
2022-10-16T13:13:45.608Z,0.32
2022-10-16T13:16:18.418Z,0.50
2022-10-16T13:19:33.690Z,0.50
2022-10-16T13:22:00.602Z,0.40
2022-10-16T13:25:06.224Z,0.50
2022-10-16T13:27:49.610Z,0.65
2022-10-16T13:30:21.543Z,1.00
2022-10-16T13:32:59.839Z,0.60
2022-10-16T13:38:14.852Z,0.95
2022-10-16T13:41:01.768Z,0.60
2022-10-16T13:43:50.871Z,0.70
2022-10-16T13:46:23.314Z,0.50
2022-10-16T13:49:13.021Z,0.30
2022-10-16T13:51:40.000Z,0.43
2022-10-16T13:54:10.269Z,0.50
2022-10-16T13:56:37.812Z,0.60
2022-10-16T13:59:07.558Z,0.47
2022-10-16T14:01:43.653Z,0.47
2022-10-16T14:04:13.594Z,0.50
2022-10-16T14:06:47.969Z,0.50
2022-10-16T14:09:27.231Z,0.60
2022-10-16T14:12:08.544Z,0.50
2022-10-16T14:14:47.909Z,0.40
2022-10-16T14:17:21.313Z,0.65
2022-10-16T14:19:54.687Z,0.40
2022-10-16T14:22:44.337Z,0.60
2022-10-16T14:25:20.478Z,0.57
2022-10-16T14:28:10.990Z,0.90
2022-10-16T14:30:38.292Z,0.60
2022-10-16T14:33:21.055Z,0.60
2022-10-16T14:36:00.128Z,0.50
2022-10-16T14:38:27.558Z,0.70
2022-10-16T14:40:55.381Z,0.55
2022-10-16T14:43:33.205Z,0.60
2022-10-16T14:46:01.141Z,0.63
2022-10-16T14:48:28.626Z,0.50
2022-10-16T14:50:56.957Z,0.50
2022-10-16T14:53:24.153Z,0.75
2022-10-16T14:55:51.555Z,0.60
2022-10-16T14:58:23.685Z,0.60
2022-10-16T15:00:51.034Z,0.43
2022-10-16T15:03:18.265Z,0.35
2022-10-16T15:05:45.382Z,0.40
2022-10-16T15:08:13.505Z,0.50
2022-10-16T15:10:44.252Z,0.82
2022-10-16T15:13:15.017Z,0.50
2022-10-16T15:15:45.509Z,0.52
2022-10-16T15:18:15.541Z,0.30
2022-10-16T15:20:43.018Z,0.60
2022-10-16T15:23:22.092Z,0.40
2022-10-16T15:25:54.243Z,0.50
2022-10-16T15:28:22.685Z,0.60
2022-10-16T15:33:37.129Z,0.80
2022-10-16T15:36:07.450Z,1.20
2022-10-16T15:38:34.590Z,0.90
2022-10-16T15:41:01.554Z,1.13
2022-10-16T15:43:29.165Z,1.13
2022-10-16T15:46:07.792Z,1.17
2022-10-16T15:48:35.323Z,1.20
2022-10-16T15:51:06.707Z,0.85
2022-10-16T15:53:35.085Z,1.08
2022-10-16T15:56:06.642Z,0.88
2022-10-16T15:58:34.717Z,0.88
2022-10-16T16:01:02.807Z,0.95
2022-10-16T16:03:30.528Z,1.73
2022-10-16T16:05:57.816Z,1.10
2022-10-16T16:08:24.990Z,1.42
2022-10-16T16:11:06.223Z,1.10
2022-10-16T16:13:33.270Z,1.00
2022-10-16T16:16:00.250Z,0.82
2022-10-16T16:18:29.623Z,0.80
2022-10-16T16:20:56.772Z,0.90
2022-10-16T16:23:23.934Z,0.98
2022-10-16T16:26:14.889Z,0.73
2022-10-16T16:28:43.829Z,0.73
2022-10-16T16:31:10.867Z,1.05
2022-10-16T16:33:37.955Z,1.50
2022-10-16T16:36:11.566Z,1.50
2022-10-16T16:38:40.092Z,1.52
2022-10-16T16:41:24.826Z,1.25
2022-10-16T16:43:54.793Z,1.05
2022-10-16T16:46:23.048Z,1.23
2022-10-16T16:48:54.519Z,1.13
2022-10-16T16:51:21.545Z,1.17
2022-10-16T16:53:51.851Z,1.30
2022-10-16T16:56:21.116Z,1.20
2022-10-16T16:58:49.760Z,1.25
2022-10-16T17:01:21.356Z,1.40
2022-10-16T17:03:51.501Z,1.45
2022-10-16T17:06:23.756Z,1.73
2022-10-16T17:08:51.293Z,1.80
2022-10-16T17:11:22.075Z,1.70
2022-10-16T17:13:52.505Z,1.67
2022-10-16T17:16:30.365Z,2.25
2022-10-16T17:19:01.172Z,2.20
2022-10-16T17:21:30.617Z,3.30
2022-10-16T17:23:58.466Z,4.78
2022-10-16T17:26:25.541Z,4.22
2022-10-16T17:28:54.310Z,3.20
2022-10-16T17:31:24.923Z,3.75
2022-10-16T17:33:52.350Z,9.52
2022-10-16T17:36:21.167Z,14.02
2022-10-16T17:38:48.380Z,18.63
2022-10-16T17:41:25.296Z,24.00
2022-10-16T17:43:52.578Z,24.73
2022-10-16T17:46:22.758Z,20.70
2022-10-16T17:48:54.404Z,13.45
2022-10-16T17:51:24.422Z,9.00
2022-10-16T17:53:53.396Z,8.00
2022-10-16T17:56:20.981Z,5.93
2022-10-16T17:58:52.811Z,5.95
2022-10-16T18:01:25.703Z,6.35
2022-10-16T18:03:55.837Z,8.82
2022-10-16T18:06:23.443Z,12.20
2022-10-16T18:08:51.881Z,13.30
2022-10-16T18:14:23.597Z,12.10
2022-10-16T18:16:52.398Z,10.95
2022-10-16T18:19:20.091Z,9.07
2022-10-16T18:21:49.336Z,7.13
2022-10-16T18:24:17.912Z,6.45
2022-10-16T18:26:45.580Z,5.10
2022-10-16T18:29:13.326Z,6.37
2022-10-16T18:31:42.949Z,6.00
2022-10-16T18:34:10.618Z,6.28
2022-10-16T18:36:37.661Z,5.80
2022-10-16T18:39:09.609Z,4.65
2022-10-16T18:41:38.760Z,4.60
2022-10-16T18:44:07.373Z,6.05
2022-10-16T18:46:34.457Z,6.43
2022-10-16T18:49:01.980Z,4.95
2022-10-16T18:51:37.539Z,5.20
2022-10-16T18:54:08.513Z,4.15
2022-10-16T18:56:35.773Z,3.92
2022-10-16T18:59:04.690Z,9.55
2022-10-16T19:01:34.202Z,8.10
2022-10-16T19:04:10.632Z,5.80
2022-10-16T19:06:40.353Z,4.70
2022-10-16T19:09:08.525Z,3.90
2022-10-16T19:11:39.292Z,2.95
2022-10-16T19:14:09.056Z,2.25
2022-10-16T19:16:37.359Z,2.42
2022-10-16T19:19:07.285Z,2.25
2022-10-16T19:21:37.266Z,2.13
2022-10-16T19:24:04.692Z,2.20
2022-10-16T19:26:34.786Z,2.38
2022-10-16T19:29:05.534Z,3.75
2022-10-16T19:31:33.158Z,3.70
2022-10-16T19:34:03.098Z,2.53
2022-10-16T19:36:33.104Z,2.30
2022-10-16T19:39:02.999Z,2.28
2022-10-16T19:41:31.082Z,1.58
2022-10-16T19:44:03.686Z,2.42
2022-10-16T19:46:31.500Z,3.83
2022-10-16T19:49:01.205Z,4.23
2022-10-16T19:51:29.899Z,4.70
2022-10-16T19:53:59.020Z,2.92
2022-10-16T19:56:28.509Z,3.88
2022-10-16T19:58:56.992Z,3.40
2022-10-16T20:03:52.066Z,2.95
2022-10-16T20:06:19.806Z,3.80
2022-10-16T20:08:49.777Z,3.37
2022-10-16T20:11:22.513Z,2.53
2022-10-16T20:13:50.129Z,2.85
2022-10-16T20:16:19.184Z,2.58
2022-10-16T20:18:48.167Z,1.98
2022-10-16T20:21:17.948Z,2.25
2022-10-16T20:23:47.098Z,1.67
2022-10-16T20:26:14.213Z,1.80
2022-10-16T20:28:42.656Z,1.58
2022-10-16T20:31:16.021Z,2.08
2022-10-16T20:33:43.424Z,1.75
2022-10-16T20:36:15.223Z,1.70
2022-10-16T20:38:44.553Z,1.80
2022-10-16T20:41:14.661Z,2.00
2022-10-16T20:43:44.379Z,1.60
2022-10-16T20:46:13.755Z,1.83
2022-10-16T20:48:44.721Z,2.13
2022-10-16T20:51:13.061Z,1.83
2022-10-16T20:53:40.014Z,1.52
2022-10-16T20:56:09.029Z,1.60
2022-10-16T20:58:37.633Z,1.67
2022-10-16T21:01:09.775Z,1.60
2022-10-16T21:03:37.956Z,2.05
2022-10-16T21:06:07.104Z,1.65
2022-10-16T21:08:39.117Z,1.80
2022-10-16T21:11:22.350Z,2.13
2022-10-16T21:13:51.697Z,1.63
2022-10-16T21:16:19.110Z,1.70
2022-10-16T21:18:46.358Z,1.95
2022-10-16T21:21:21.496Z,1.55
2022-10-16T21:23:50.519Z,2.13
2022-10-16T21:26:22.849Z,1.73
2022-10-16T21:28:50.027Z,2.05
2022-10-16T21:31:19.561Z,1.40
2022-10-16T21:33:47.658Z,2.08
2022-10-16T21:36:17.416Z,1.80
2022-10-16T21:41:21.852Z,1.83
2022-10-16T21:43:49.507Z,1.60
2022-10-16T21:46:18.315Z,1.70
2022-10-16T21:48:45.763Z,2.10
2022-10-16T21:51:13.709Z,2.40
2022-10-16T21:53:41.086Z,2.30
2022-10-16T21:56:18.178Z,2.35
2022-10-16T21:58:45.678Z,2.97
2022-10-16T22:01:18.502Z,2.30
2022-10-16T22:03:46.740Z,1.70
2022-10-16T22:06:15.987Z,1.70
2022-10-16T22:08:43.768Z,1.83
2022-10-16T22:11:20.395Z,1.60
2022-10-16T22:13:54.260Z,1.60
2022-10-16T22:16:25.809Z,1.40
2022-10-16T22:18:57.222Z,1.67
2022-10-16T22:21:24.749Z,1.60
2022-10-16T22:23:51.775Z,1.63
2022-10-16T22:26:18.821Z,1.95
2022-10-16T22:28:46.032Z,1.60
2022-10-16T22:31:14.885Z,1.30
2022-10-16T22:33:43.537Z,1.42
2022-10-16T22:36:15.124Z,1.50
2022-10-16T22:38:42.335Z,1.30
2022-10-16T22:41:12.372Z,1.38
2022-10-16T22:43:44.328Z,1.40
2022-10-16T22:46:14.178Z,1.67
2022-10-16T22:48:41.580Z,1.42
2022-10-16T22:51:09.682Z,1.20
2022-10-16T22:53:36.664Z,1.40
2022-10-16T22:56:03.620Z,1.50
2022-10-16T22:58:30.742Z,1.23
2022-10-16T23:03:29.637Z,1.00
2022-10-16T23:05:56.588Z,1.10
2022-10-16T23:08:23.593Z,1.13
2022-10-16T23:10:50.533Z,1.15
2022-10-16T23:13:17.583Z,1.15
2022-10-16T23:15:44.972Z,1.10
2022-10-16T23:18:12.502Z,1.10
2022-10-16T23:20:40.746Z,1.10
2022-10-16T23:23:09.038Z,0.93
2022-10-16T23:25:37.291Z,1.30
2022-10-16T23:28:04.691Z,1.10
2022-10-16T23:30:31.656Z,1.10
2022-10-16T23:32:58.562Z,1.10
2022-10-16T23:35:25.494Z,1.00
2022-10-16T23:37:52.541Z,0.98
2022-10-16T23:40:19.598Z,0.80
2022-10-16T23:42:46.764Z,0.80
2022-10-16T23:45:13.714Z,0.70
2022-10-16T23:47:41.543Z,0.80
2022-10-16T23:50:09.777Z,0.95
2022-10-16T23:52:37.034Z,0.88
2022-10-16T23:55:04.958Z,0.80
2022-10-16T23:57:31.981Z,0.73
2022-10-16T23:59:58.988Z,0.73
